sensor_id;sensor_type;location;lat;lon;timestamp;temperature;humidity
64918;HTU21D;52176;44.858;38.372;2022-08-19T00:00:46;21.68;84.39
64918;HTU21D;52176;44.858;38.372;2022-08-19T00:03:12;21.64;84.48
64918;HTU21D;52176;44.858;38.372;2022-08-19T00:05:37;21.59;84.57
64918;HTU21D;52176;44.858;38.372;2022-08-19T00:08:04;21.54;84.70
64918;HTU21D;52176;44.858;38.372;2022-08-19T00:10:30;21.52;84.72
64918;HTU21D;52176;44.858;38.372;2022-08-19T00:12:55;21.47;84.83
64918;HTU21D;52176;44.858;38.372;2022-08-19T00:15:21;21.46;84.86
64918;HTU21D;52176;44.858;38.372;2022-08-19T00:17:47;21.42;84.90
64918;HTU21D;52176;44.858;38.372;2022-08-19T00:20:16;21.42;84.95
64918;HTU21D;52176;44.858;38.372;2022-08-19T00:22:43;21.38;84.97
64918;HTU21D;52176;44.858;38.372;2022-08-19T00:25:09;21.39;85.00
64918;HTU21D;52176;44.858;38.372;2022-08-19T00:27:35;21.38;84.98
64918;HTU21D;52176;44.858;38.372;2022-08-19T00:30:02;21.37;85.06
64918;HTU21D;52176;44.858;38.372;2022-08-19T00:32:29;21.35;85.09
64918;HTU21D;52176;44.858;38.372;2022-08-19T00:34:55;21.32;85.14
64918;HTU21D;52176;44.858;38.372;2022-08-19T00:37:22;21.31;85.29
64918;HTU21D;52176;44.858;38.372;2022-08-19T00:39:49;21.30;85.39
64918;HTU21D;52176;44.858;38.372;2022-08-19T00:42:16;21.28;85.52
64918;HTU21D;52176;44.858;38.372;2022-08-19T00:44:42;21.28;85.51
64918;HTU21D;52176;44.858;38.372;2022-08-19T00:47:08;21.29;85.63
64918;HTU21D;52176;44.858;38.372;2022-08-19T00:49:37;21.27;85.84
64918;HTU21D;52176;44.858;38.372;2022-08-19T00:52:09;21.28;85.96
64918;HTU21D;52176;44.858;38.372;2022-08-19T00:54:38;21.28;86.00
64918;HTU21D;52176;44.858;38.372;2022-08-19T00:57:07;21.28;86.13
64918;HTU21D;52176;44.858;38.372;2022-08-19T00:59:35;21.28;86.12
64918;HTU21D;52176;44.858;38.372;2022-08-19T01:02:03;21.30;86.15
64918;HTU21D;52176;44.858;38.372;2022-08-19T01:04:30;21.28;86.11
64918;HTU21D;52176;44.858;38.372;2022-08-19T01:06:57;21.28;86.19
64918;HTU21D;52176;44.858;38.372;2022-08-19T01:09:23;21.27;86.13
64918;HTU21D;52176;44.858;38.372;2022-08-19T01:11:50;21.25;86.17
64918;HTU21D;52176;44.858;38.372;2022-08-19T01:14:17;21.24;86.24
64918;HTU21D;52176;44.858;38.372;2022-08-19T01:16:44;21.21;86.25
64918;HTU21D;52176;44.858;38.372;2022-08-19T01:19:29;21.17;86.31
64918;HTU21D;52176;44.858;38.372;2022-08-19T01:22:03;21.14;86.44
64918;HTU21D;52176;44.858;38.372;2022-08-19T01:24:31;21.14;86.41
64918;HTU21D;52176;44.858;38.372;2022-08-19T01:26:58;21.14;86.48
64918;HTU21D;52176;44.858;38.372;2022-08-19T01:29:24;21.13;86.54
64918;HTU21D;52176;44.858;38.372;2022-08-19T01:31:50;21.11;86.51
64918;HTU21D;52176;44.858;38.372;2022-08-19T01:34:19;21.10;86.63
64918;HTU21D;52176;44.858;38.372;2022-08-19T01:36:46;21.09;86.72
64918;HTU21D;52176;44.858;38.372;2022-08-19T01:39:22;21.09;86.75
64918;HTU21D;52176;44.858;38.372;2022-08-19T01:41:49;21.08;86.63
64918;HTU21D;52176;44.858;38.372;2022-08-19T01:44:16;21.09;86.68
64918;HTU21D;52176;44.858;38.372;2022-08-19T01:46:42;21.09;86.67
64918;HTU21D;52176;44.858;38.372;2022-08-19T01:49:09;21.09;86.64
64918;HTU21D;52176;44.858;38.372;2022-08-19T01:51:36;21.08;86.70
64918;HTU21D;52176;44.858;38.372;2022-08-19T01:54:03;21.07;86.71
64918;HTU21D;52176;44.858;38.372;2022-08-19T01:56:29;21.07;86.75
64918;HTU21D;52176;44.858;38.372;2022-08-19T01:59:02;21.06;86.81
64918;HTU21D;52176;44.858;38.372;2022-08-19T02:01:28;21.06;86.67
64918;HTU21D;52176;44.858;38.372;2022-08-19T02:04:00;21.06;86.80
64918;HTU21D;52176;44.858;38.372;2022-08-19T02:06:28;21.05;86.77
64918;HTU21D;52176;44.858;38.372;2022-08-19T02:08:54;21.03;86.78
64918;HTU21D;52176;44.858;38.372;2022-08-19T02:11:30;21.02;86.93
64918;HTU21D;52176;44.858;38.372;2022-08-19T02:13:57;21.00;86.93
64918;HTU21D;52176;44.858;38.372;2022-08-19T02:16:24;20.99;86.88
64918;HTU21D;52176;44.858;38.372;2022-08-19T02:18:50;20.98;87.01
64918;HTU21D;52176;44.858;38.372;2022-08-19T02:21:18;20.98;87.03
64918;HTU21D;52176;44.858;38.372;2022-08-19T02:23:44;20.94;87.00
64918;HTU21D;52176;44.858;38.372;2022-08-19T02:26:11;20.92;87.00
64918;HTU21D;52176;44.858;38.372;2022-08-19T02:28:39;20.92;87.06
64918;HTU21D;52176;44.858;38.372;2022-08-19T02:31:13;20.90;87.20
64918;HTU21D;52176;44.858;38.372;2022-08-19T02:33:40;20.91;87.04
64918;HTU21D;52176;44.858;38.372;2022-08-19T02:36:08;20.89;87.12
64918;HTU21D;52176;44.858;38.372;2022-08-19T02:38:35;20.85;87.17
64918;HTU21D;52176;44.858;38.372;2022-08-19T02:41:11;20.85;87.25
64918;HTU21D;52176;44.858;38.372;2022-08-19T02:43:37;20.81;87.17
64918;HTU21D;52176;44.858;38.372;2022-08-19T02:46:19;20.81;87.28
64918;HTU21D;52176;44.858;38.372;2022-08-19T02:48:51;20.78;87.38
64918;HTU21D;52176;44.858;38.372;2022-08-19T02:51:26;20.78;87.38
64918;HTU21D;52176;44.858;38.372;2022-08-19T02:53:53;20.79;87.37
64918;HTU21D;52176;44.858;38.372;2022-08-19T02:56:20;20.83;87.38
64918;HTU21D;52176;44.858;38.372;2022-08-19T02:58:46;20.86;87.35
64918;HTU21D;52176;44.858;38.372;2022-08-19T03:01:27;20.91;87.28
64918;HTU21D;52176;44.858;38.372;2022-08-19T03:03:58;20.94;87.22
64918;HTU21D;52176;44.858;38.372;2022-08-19T03:06:25;20.98;87.22
64918;HTU21D;52176;44.858;38.372;2022-08-19T03:08:52;21.02;87.28
64918;HTU21D;52176;44.858;38.372;2022-08-19T03:13:50;21.17;87.14
64918;HTU21D;52176;44.858;38.372;2022-08-19T03:16:18;21.27;87.03
64918;HTU21D;52176;44.858;38.372;2022-08-19T03:18:44;21.37;86.83
64918;HTU21D;52176;44.858;38.372;2022-08-19T03:21:16;21.48;86.74
64918;HTU21D;52176;44.858;38.372;2022-08-19T03:23:43;21.60;86.50
64918;HTU21D;52176;44.858;38.372;2022-08-19T03:26:09;21.72;86.30
64918;HTU21D;52176;44.858;38.372;2022-08-19T03:28:35;21.84;86.11
64918;HTU21D;52176;44.858;38.372;2022-08-19T03:31:10;21.99;85.93
64918;HTU21D;52176;44.858;38.372;2022-08-19T03:33:37;22.13;85.63
64918;HTU21D;52176;44.858;38.372;2022-08-19T03:36:16;22.26;85.45
64918;HTU21D;52176;44.858;38.372;2022-08-19T03:38:45;22.42;85.12
64918;HTU21D;52176;44.858;38.372;2022-08-19T03:41:17;22.61;84.87
64918;HTU21D;52176;44.858;38.372;2022-08-19T03:43:43;22.82;84.52
64918;HTU21D;52176;44.858;38.372;2022-08-19T03:46:13;23.03;84.16
64918;HTU21D;52176;44.858;38.372;2022-08-19T03:48:39;23.26;83.86
64918;HTU21D;52176;44.858;38.372;2022-08-19T03:51:06;23.47;83.49
64918;HTU21D;52176;44.858;38.372;2022-08-19T03:53:33;23.68;83.16
64918;HTU21D;52176;44.858;38.372;2022-08-19T03:55:59;23.89;82.82
64918;HTU21D;52176;44.858;38.372;2022-08-19T03:58:29;24.09;82.46
64918;HTU21D;52176;44.858;38.372;2022-08-19T04:00:55;24.27;82.18
64918;HTU21D;52176;44.858;38.372;2022-08-19T04:03:22;24.45;81.72
64918;HTU21D;52176;44.858;38.372;2022-08-19T04:05:48;24.62;81.35
64918;HTU21D;52176;44.858;38.372;2022-08-19T04:08:14;24.82;80.95
64918;HTU21D;52176;44.858;38.372;2022-08-19T04:10:46;25.02;80.39
64918;HTU21D;52176;44.858;38.372;2022-08-19T04:13:12;25.24;79.82
64918;HTU21D;52176;44.858;38.372;2022-08-19T04:15:39;25.45;79.40
64918;HTU21D;52176;44.858;38.372;2022-08-19T04:18:07;25.66;78.98
64918;HTU21D;52176;44.858;38.372;2022-08-19T04:20:38;25.90;78.43
64918;HTU21D;52176;44.858;38.372;2022-08-19T04:23:04;26.17;77.89
64918;HTU21D;52176;44.858;38.372;2022-08-19T04:25:34;26.45;77.25
64918;HTU21D;52176;44.858;38.372;2022-08-19T04:28:00;26.70;76.53
64918;HTU21D;52176;44.858;38.372;2022-08-19T04:30:26;26.94;75.91
64918;HTU21D;52176;44.858;38.372;2022-08-19T04:32:51;27.19;75.41
64918;HTU21D;52176;44.858;38.372;2022-08-19T04:35:17;27.46;74.67
64918;HTU21D;52176;44.858;38.372;2022-08-19T04:37:43;27.73;73.86
64918;HTU21D;52176;44.858;38.372;2022-08-19T04:40:09;27.95;73.19
64918;HTU21D;52176;44.858;38.372;2022-08-19T04:42:58;28.24;72.83
64918;HTU21D;52176;44.858;38.372;2022-08-19T04:45:23;28.46;72.10
64918;HTU21D;52176;44.858;38.372;2022-08-19T04:47:49;28.62;71.73
64918;HTU21D;52176;44.858;38.372;2022-08-19T04:50:21;28.84;71.22
64918;HTU21D;52176;44.858;38.372;2022-08-19T04:52:49;29.11;70.47
64918;HTU21D;52176;44.858;38.372;2022-08-19T04:55:15;29.38;69.70
64918;HTU21D;52176;44.858;38.372;2022-08-19T04:57:42;29.65;69.00
64918;HTU21D;52176;44.858;38.372;2022-08-19T05:00:08;29.91;68.37
64918;HTU21D;52176;44.858;38.372;2022-08-19T05:02:34;30.17;67.78
64918;HTU21D;52176;44.858;38.372;2022-08-19T05:05:00;30.42;67.00
64918;HTU21D;52176;44.858;38.372;2022-08-19T05:07:26;30.60;66.40
64918;HTU21D;52176;44.858;38.372;2022-08-19T05:09:52;30.78;65.99
64918;HTU21D;52176;44.858;38.372;2022-08-19T05:12:18;31.02;65.29
64918;HTU21D;52176;44.858;38.372;2022-08-19T05:14:45;31.26;64.66
64918;HTU21D;52176;44.858;38.372;2022-08-19T05:17:13;31.49;64.21
64918;HTU21D;52176;44.858;38.372;2022-08-19T05:19:38;31.69;63.58
64918;HTU21D;52176;44.858;38.372;2022-08-19T05:22:22;31.94;62.80
64918;HTU21D;52176;44.858;38.372;2022-08-19T05:24:58;32.18;62.09
64918;HTU21D;52176;44.858;38.372;2022-08-19T05:27:24;32.38;61.45
64918;HTU21D;52176;44.858;38.372;2022-08-19T05:29:49;32.62;61.04
64918;HTU21D;52176;44.858;38.372;2022-08-19T05:32:15;32.84;60.35
64918;HTU21D;52176;44.858;38.372;2022-08-19T05:34:41;33.04;59.64
64918;HTU21D;52176;44.858;38.372;2022-08-19T05:37:07;33.27;59.35
64918;HTU21D;52176;44.858;38.372;2022-08-19T05:39:36;33.53;58.36
64918;HTU21D;52176;44.858;38.372;2022-08-19T05:42:05;33.74;57.84
64918;HTU21D;52176;44.858;38.372;2022-08-19T05:44:33;33.92;57.36
64918;HTU21D;52176;44.858;38.372;2022-08-19T05:46:59;34.11;56.92
64918;HTU21D;52176;44.858;38.372;2022-08-19T05:49:26;34.29;56.49
64918;HTU21D;52176;44.858;38.372;2022-08-19T05:51:52;34.47;56.08
64918;HTU21D;52176;44.858;38.372;2022-08-19T05:54:19;34.70;55.18
64918;HTU21D;52176;44.858;38.372;2022-08-19T05:56:45;34.94;53.97
64918;HTU21D;52176;44.858;38.372;2022-08-19T05:59:13;35.21;53.52
64918;HTU21D;52176;44.858;38.372;2022-08-19T06:01:40;35.42;52.91
64918;HTU21D;52176;44.858;38.372;2022-08-19T06:04:06;35.63;52.61
64918;HTU21D;52176;44.858;38.372;2022-08-19T06:06:33;35.87;52.09
64918;HTU21D;52176;44.858;38.372;2022-08-19T06:09:03;36.14;51.75
64918;HTU21D;52176;44.858;38.372;2022-08-19T06:11:33;36.41;51.00
64918;HTU21D;52176;44.858;38.372;2022-08-19T06:14:00;36.59;50.33
64918;HTU21D;52176;44.858;38.372;2022-08-19T06:16:27;36.75;49.52
64918;HTU21D;52176;44.858;38.372;2022-08-19T06:18:54;37.00;48.66
64918;HTU21D;52176;44.858;38.372;2022-08-19T06:21:24;37.20;48.09
64918;HTU21D;52176;44.858;38.372;2022-08-19T06:23:51;37.43;47.89
64918;HTU21D;52176;44.858;38.372;2022-08-19T06:26:19;37.59;47.44
64918;HTU21D;52176;44.858;38.372;2022-08-19T06:28:46;37.85;46.48
64918;HTU21D;52176;44.858;38.372;2022-08-19T06:31:15;38.11;45.73
64918;HTU21D;52176;44.858;38.372;2022-08-19T06:33:43;38.33;45.19
64918;HTU21D;52176;44.858;38.372;2022-08-19T06:36:24;38.62;44.51
64918;HTU21D;52176;44.858;38.372;2022-08-19T06:38:55;38.90;44.01
64918;HTU21D;52176;44.858;38.372;2022-08-19T06:41:25;39.14;43.45
64918;HTU21D;52176;44.858;38.372;2022-08-19T06:43:52;39.38;42.74
64918;HTU21D;52176;44.858;38.372;2022-08-19T06:46:19;39.54;42.48
64918;HTU21D;52176;44.858;38.372;2022-08-19T06:48:46;39.67;42.42
64918;HTU21D;52176;44.858;38.372;2022-08-19T06:51:15;39.91;41.84
64918;HTU21D;52176;44.858;38.372;2022-08-19T06:53:44;40.10;41.71
64918;HTU21D;52176;44.858;38.372;2022-08-19T06:56:14;40.18;41.52
64918;HTU21D;52176;44.858;38.372;2022-08-19T06:58:41;40.32;41.20
64918;HTU21D;52176;44.858;38.372;2022-08-19T07:01:08;40.55;40.58
64918;HTU21D;52176;44.858;38.372;2022-08-19T07:03:36;40.75;40.49
64918;HTU21D;52176;44.858;38.372;2022-08-19T07:06:10;40.95;39.97
64918;HTU21D;52176;44.858;38.372;2022-08-19T07:08:37;41.09;39.33
64918;HTU21D;52176;44.858;38.372;2022-08-19T07:11:08;40.96;39.03
64918;HTU21D;52176;44.858;38.372;2022-08-19T07:13:35;40.95;39.43
64918;HTU21D;52176;44.858;38.372;2022-08-19T07:16:03;41.04;39.46
64918;HTU21D;52176;44.858;38.372;2022-08-19T07:18:29;41.07;38.18
64918;HTU21D;52176;44.858;38.372;2022-08-19T07:21:02;41.01;38.65
64918;HTU21D;52176;44.858;38.372;2022-08-19T07:23:28;41.13;38.77
64918;HTU21D;52176;44.858;38.372;2022-08-19T07:25:54;41.27;38.30
64918;HTU21D;52176;44.858;38.372;2022-08-19T07:28:19;41.46;38.15
64918;HTU21D;52176;44.858;38.372;2022-08-19T07:30:46;41.65;37.52
64918;HTU21D;52176;44.858;38.372;2022-08-19T07:33:11;41.88;37.33
64918;HTU21D;52176;44.858;38.372;2022-08-19T07:35:37;42.17;37.08
64918;HTU21D;52176;44.858;38.372;2022-08-19T07:38:03;42.43;36.92
64918;HTU21D;52176;44.858;38.372;2022-08-19T07:40:29;42.59;36.14
64918;HTU21D;52176;44.858;38.372;2022-08-19T07:42:55;42.63;36.21
64918;HTU21D;52176;44.858;38.372;2022-08-19T07:45:21;42.62;36.23
64918;HTU21D;52176;44.858;38.372;2022-08-19T07:47:46;42.65;35.85
64918;HTU21D;52176;44.858;38.372;2022-08-19T07:50:12;42.89;35.56
64918;HTU21D;52176;44.858;38.372;2022-08-19T07:52:38;42.98;35.27
64918;HTU21D;52176;44.858;38.372;2022-08-19T07:55:09;42.99;35.40
64918;HTU21D;52176;44.858;38.372;2022-08-19T07:57:35;43.06;35.47
64918;HTU21D;52176;44.858;38.372;2022-08-19T08:00:02;43.18;35.63
64918;HTU21D;52176;44.858;38.372;2022-08-19T08:02:37;43.09;35.40
64918;HTU21D;52176;44.858;38.372;2022-08-19T08:05:08;43.25;35.52
64918;HTU21D;52176;44.858;38.372;2022-08-19T08:07:52;43.27;35.45
64918;HTU21D;52176;44.858;38.372;2022-08-19T08:10:36;43.35;35.50
64918;HTU21D;52176;44.858;38.372;2022-08-19T08:13:02;43.00;35.63
64918;HTU21D;52176;44.858;38.372;2022-08-19T08:15:30;42.29;36.57
64918;HTU21D;52176;44.858;38.372;2022-08-19T08:17:56;41.88;37.10
64918;HTU21D;52176;44.858;38.372;2022-08-19T08:20:23;41.86;37.37
64918;HTU21D;52176;44.858;38.372;2022-08-19T08:22:49;42.06;36.86
64918;HTU21D;52176;44.858;38.372;2022-08-19T08:25:33;41.60;37.07
64918;HTU21D;52176;44.858;38.372;2022-08-19T08:28:01;40.66;38.13
64918;HTU21D;52176;44.858;38.372;2022-08-19T08:30:27;39.71;39.30
64918;HTU21D;52176;44.858;38.372;2022-08-19T08:32:54;38.84;40.88
64918;HTU21D;52176;44.858;38.372;2022-08-19T08:35:21;38.10;42.33
64918;HTU21D;52176;44.858;38.372;2022-08-19T08:37:48;37.46;43.29
64918;HTU21D;52176;44.858;38.372;2022-08-19T08:40:21;36.89;43.90
64918;HTU21D;52176;44.858;38.372;2022-08-19T08:45:44;35.79;45.84
64918;HTU21D;52176;44.858;38.372;2022-08-19T08:48:56;35.43;46.47
64918;HTU21D;52176;44.858;38.372;2022-08-19T08:51:03;35.16;46.99
64918;HTU21D;52176;44.858;38.372;2022-08-19T08:53:30;34.88;47.73
64918;HTU21D;52176;44.858;38.372;2022-08-19T08:55:58;34.55;48.63
64918;HTU21D;52176;44.858;38.372;2022-08-19T08:58:31;34.21;49.42
64918;HTU21D;52176;44.858;38.372;2022-08-19T09:00:58;33.93;49.94
64918;HTU21D;52176;44.858;38.372;2022-08-19T09:03:26;33.66;50.42
64918;HTU21D;52176;44.858;38.372;2022-08-19T09:06:07;33.41;51.21
64918;HTU21D;52176;44.858;38.372;2022-08-19T09:11:05;32.90;52.10
64918;HTU21D;52176;44.858;38.372;2022-08-19T09:16:11;32.41;52.65
64918;HTU21D;52176;44.858;38.372;2022-08-19T09:21:07;31.97;53.36
64918;HTU21D;52176;44.858;38.372;2022-08-19T09:23:34;31.75;53.84
64918;HTU21D;52176;44.858;38.372;2022-08-19T09:26:00;31.56;54.35
64918;HTU21D;52176;44.858;38.372;2022-08-19T09:28:26;31.38;55.08
64918;HTU21D;52176;44.858;38.372;2022-08-19T09:30:54;31.21;55.94
64918;HTU21D;52176;44.858;38.372;2022-08-19T09:33:20;31.06;56.81
64918;HTU21D;52176;44.858;38.372;2022-08-19T09:35:46;30.89;57.61
64918;HTU21D;52176;44.858;38.372;2022-08-19T09:38:11;30.71;58.61
64918;HTU21D;52176;44.858;38.372;2022-08-19T09:40:37;30.57;59.75
64918;HTU21D;52176;44.858;38.372;2022-08-19T09:43:04;30.36;61.10
64918;HTU21D;52176;44.858;38.372;2022-08-19T09:45:30;30.10;62.56
64918;HTU21D;52176;44.858;38.372;2022-08-19T09:47:56;29.79;63.47
64918;HTU21D;52176;44.858;38.372;2022-08-19T09:50:22;29.57;64.34
64918;HTU21D;52176;44.858;38.372;2022-08-19T09:52:49;29.33;64.71
64918;HTU21D;52176;44.858;38.372;2022-08-19T09:55:14;29.11;65.14
64918;HTU21D;52176;44.858;38.372;2022-08-19T09:57:41;28.90;65.48
64918;HTU21D;52176;44.858;38.372;2022-08-19T10:00:07;28.71;65.62
64918;HTU21D;52176;44.858;38.372;2022-08-19T10:02:34;28.55;65.60
64918;HTU21D;52176;44.858;38.372;2022-08-19T10:05:00;28.42;65.88
64918;HTU21D;52176;44.858;38.372;2022-08-19T10:07:44;28.34;66.09
64918;HTU21D;52176;44.858;38.372;2022-08-19T10:10:10;28.45;66.27
64918;HTU21D;52176;44.858;38.372;2022-08-19T10:12:36;28.67;66.03
64918;HTU21D;52176;44.858;38.372;2022-08-19T10:15:02;28.74;65.93
64918;HTU21D;52176;44.858;38.372;2022-08-19T10:17:28;28.78;66.11
64918;HTU21D;52176;44.858;38.372;2022-08-19T10:19:54;28.83;66.15
64918;HTU21D;52176;44.858;38.372;2022-08-19T10:22:19;28.88;66.29
64918;HTU21D;52176;44.858;38.372;2022-08-19T10:24:45;28.91;66.40
64918;HTU21D;52176;44.858;38.372;2022-08-19T10:27:11;28.87;66.30
64918;HTU21D;52176;44.858;38.372;2022-08-19T10:29:38;28.75;66.36
64918;HTU21D;52176;44.858;38.372;2022-08-19T10:32:05;28.68;66.68
64918;HTU21D;52176;44.858;38.372;2022-08-19T10:34:32;28.65;66.80
64918;HTU21D;52176;44.858;38.372;2022-08-19T10:36:58;28.72;66.89
64918;HTU21D;52176;44.858;38.372;2022-08-19T10:39:25;29.11;66.36
64918;HTU21D;52176;44.858;38.372;2022-08-19T10:41:53;29.77;65.08
64918;HTU21D;52176;44.858;38.372;2022-08-19T10:44:21;30.30;63.86
64918;HTU21D;52176;44.858;38.372;2022-08-19T10:46:48;30.51;63.25
64918;HTU21D;52176;44.858;38.372;2022-08-19T10:49:14;30.65;63.04
64918;HTU21D;52176;44.858;38.372;2022-08-19T10:51:40;30.96;62.87
64918;HTU21D;52176;44.858;38.372;2022-08-19T10:54:25;31.85;61.38
64918;HTU21D;52176;44.858;38.372;2022-08-19T10:57:10;32.92;59.12
64918;HTU21D;52176;44.858;38.372;2022-08-19T10:59:36;33.86;57.26
64918;HTU21D;52176;44.858;38.372;2022-08-19T11:02:05;34.78;55.61
64918;HTU21D;52176;44.858;38.372;2022-08-19T11:04:32;35.67;53.86
64918;HTU21D;52176;44.858;38.372;2022-08-19T11:06:58;36.55;52.15
64918;HTU21D;52176;44.858;38.372;2022-08-19T11:09:24;37.31;50.22
64918;HTU21D;52176;44.858;38.372;2022-08-19T11:11:51;37.73;48.60
64918;HTU21D;52176;44.858;38.372;2022-08-19T11:14:18;38.11;47.89
64918;HTU21D;52176;44.858;38.372;2022-08-19T11:16:47;38.51;47.10
64918;HTU21D;52176;44.858;38.372;2022-08-19T11:19:14;38.88;46.25
64918;HTU21D;52176;44.858;38.372;2022-08-19T11:21:46;39.19;45.77
64918;HTU21D;52176;44.858;38.372;2022-08-19T11:24:16;39.40;45.27
64918;HTU21D;52176;44.858;38.372;2022-08-19T11:26:43;39.49;44.42
64918;HTU21D;52176;44.858;38.372;2022-08-19T11:29:11;39.70;43.49
64918;HTU21D;52176;44.858;38.372;2022-08-19T11:31:43;39.89;42.29
64918;HTU21D;52176;44.858;38.372;2022-08-19T11:34:13;39.97;41.89
64918;HTU21D;52176;44.858;38.372;2022-08-19T11:36:42;39.97;42.00
64918;HTU21D;52176;44.858;38.372;2022-08-19T11:39:11;39.83;42.53
64918;HTU21D;52176;44.858;38.372;2022-08-19T11:41:37;39.80;41.76
64918;HTU21D;52176;44.858;38.372;2022-08-19T11:44:04;39.89;40.94
64918;HTU21D;52176;44.858;38.372;2022-08-19T11:46:30;40.13;40.38
64918;HTU21D;52176;44.858;38.372;2022-08-19T11:48:58;40.30;39.97
64918;HTU21D;52176;44.858;38.372;2022-08-19T11:51:27;40.44;39.78
64918;HTU21D;52176;44.858;38.372;2022-08-19T11:53:54;40.56;39.10
64918;HTU21D;52176;44.858;38.372;2022-08-19T11:56:21;40.57;39.11
64918;HTU21D;52176;44.858;38.372;2022-08-19T11:58:50;40.48;38.43
64918;HTU21D;52176;44.858;38.372;2022-08-19T12:01:20;40.27;37.69
64918;HTU21D;52176;44.858;38.372;2022-08-19T12:03:48;40.13;38.32
64918;HTU21D;52176;44.858;38.372;2022-08-19T12:06:18;40.06;38.43
64918;HTU21D;52176;44.858;38.372;2022-08-19T12:08:44;39.95;38.85
64918;HTU21D;52176;44.858;38.372;2022-08-19T12:11:11;39.55;39.35
64918;HTU21D;52176;44.858;38.372;2022-08-19T12:13:37;39.30;39.39
64918;HTU21D;52176;44.858;38.372;2022-08-19T12:16:11;39.22;39.43
64918;HTU21D;52176;44.858;38.372;2022-08-19T12:18:41;39.07;39.87
64918;HTU21D;52176;44.858;38.372;2022-08-19T12:21:09;38.97;39.40
64918;HTU21D;52176;44.858;38.372;2022-08-19T12:23:36;38.91;39.70
64918;HTU21D;52176;44.858;38.372;2022-08-19T12:26:03;38.83;39.60
64918;HTU21D;52176;44.858;38.372;2022-08-19T12:28:29;38.66;39.70
64918;HTU21D;52176;44.858;38.372;2022-08-19T12:30:55;38.39;40.16
64918;HTU21D;52176;44.858;38.372;2022-08-19T12:33:21;38.31;40.80
64918;HTU21D;52176;44.858;38.372;2022-08-19T12:35:50;38.32;40.77
64918;HTU21D;52176;44.858;38.372;2022-08-19T12:38:16;38.26;40.89
64918;HTU21D;52176;44.858;38.372;2022-08-19T12:40:45;38.18;40.68
64918;HTU21D;52176;44.858;38.372;2022-08-19T12:43:11;37.96;41.43
64918;HTU21D;52176;44.858;38.372;2022-08-19T12:45:37;37.90;41.42
64918;HTU21D;52176;44.858;38.372;2022-08-19T12:48:04;37.89;41.49
64918;HTU21D;52176;44.858;38.372;2022-08-19T12:50:30;37.73;41.25
64918;HTU21D;52176;44.858;38.372;2022-08-19T12:52:57;37.57;42.23
64918;HTU21D;52176;44.858;38.372;2022-08-19T12:55:23;37.48;42.61
64918;HTU21D;52176;44.858;38.372;2022-08-19T12:57:50;37.50;42.61
64918;HTU21D;52176;44.858;38.372;2022-08-19T13:00:19;37.37;42.79
64918;HTU21D;52176;44.858;38.372;2022-08-19T13:02:48;37.21;43.67
64918;HTU21D;52176;44.858;38.372;2022-08-19T13:05:30;37.12;43.80
64918;HTU21D;52176;44.858;38.372;2022-08-19T13:07:57;37.10;43.36
64918;HTU21D;52176;44.858;38.372;2022-08-19T13:10:35;37.01;43.31
64918;HTU21D;52176;44.858;38.372;2022-08-19T13:13:03;36.80;44.09
64918;HTU21D;52176;44.858;38.372;2022-08-19T13:15:34;36.71;44.29
64918;HTU21D;52176;44.858;38.372;2022-08-19T13:18:00;36.60;44.16
64918;HTU21D;52176;44.858;38.372;2022-08-19T13:20:26;36.47;44.77
64918;HTU21D;52176;44.858;38.372;2022-08-19T13:22:53;36.32;44.72
64918;HTU21D;52176;44.858;38.372;2022-08-19T13:25:20;36.02;45.38
64918;HTU21D;52176;44.858;38.372;2022-08-19T13:27:47;35.70;45.07
64918;HTU21D;52176;44.858;38.372;2022-08-19T13:30:15;35.41;45.69
64918;HTU21D;52176;44.858;38.372;2022-08-19T13:33:00;35.08;46.19
64918;HTU21D;52176;44.858;38.372;2022-08-19T13:38:11;34.50;48.63
64918;HTU21D;52176;44.858;38.372;2022-08-19T13:40:38;34.34;47.92
64918;HTU21D;52176;44.858;38.372;2022-08-19T13:43:04;34.12;47.73
64918;HTU21D;52176;44.858;38.372;2022-08-19T13:45:32;33.93;48.48
64918;HTU21D;52176;44.858;38.372;2022-08-19T13:47:59;33.68;49.76
64918;HTU21D;52176;44.858;38.372;2022-08-19T13:50:27;33.33;51.40
64918;HTU21D;52176;44.858;38.372;2022-08-19T13:52:53;32.94;53.00
64918;HTU21D;52176;44.858;38.372;2022-08-19T13:55:19;32.57;54.39
64918;HTU21D;52176;44.858;38.372;2022-08-19T13:57:45;32.16;56.09
64918;HTU21D;52176;44.858;38.372;2022-08-19T14:00:15;31.73;57.97
64918;HTU21D;52176;44.858;38.372;2022-08-19T14:02:45;31.34;59.83
64918;HTU21D;52176;44.858;38.372;2022-08-19T14:05:14;30.97;60.95
64918;HTU21D;52176;44.858;38.372;2022-08-19T14:07:40;30.65;61.71
64918;HTU21D;52176;44.858;38.372;2022-08-19T14:10:07;30.38;63.19
64918;HTU21D;52176;44.858;38.372;2022-08-19T14:12:34;30.12;64.19
64918;HTU21D;52176;44.858;38.372;2022-08-19T14:15:00;29.91;64.98
64918;HTU21D;52176;44.858;38.372;2022-08-19T14:17:26;29.71;65.21
64918;HTU21D;52176;44.858;38.372;2022-08-19T14:19:58;29.45;65.33
64918;HTU21D;52176;44.858;38.372;2022-08-19T14:22:32;29.15;65.78
64918;HTU21D;52176;44.858;38.372;2022-08-19T14:24:57;28.90;66.26
64918;HTU21D;52176;44.858;38.372;2022-08-19T14:27:23;28.68;66.61
64918;HTU21D;52176;44.858;38.372;2022-08-19T14:29:53;28.42;67.28
64918;HTU21D;52176;44.858;38.372;2022-08-19T14:32:20;28.15;68.19
64918;HTU21D;52176;44.858;38.372;2022-08-19T14:34:46;27.85;69.24
64918;HTU21D;52176;44.858;38.372;2022-08-19T14:37:13;27.54;69.09
64918;HTU21D;52176;44.858;38.372;2022-08-19T14:39:41;27.23;69.23
64918;HTU21D;52176;44.858;38.372;2022-08-19T14:42:08;26.91;67.91
64918;HTU21D;52176;44.858;38.372;2022-08-19T14:44:34;26.61;68.18
64918;HTU21D;52176;44.858;38.372;2022-08-19T14:47:00;26.34;69.06
64918;HTU21D;52176;44.858;38.372;2022-08-19T14:49:26;26.15;70.24
64918;HTU21D;52176;44.858;38.372;2022-08-19T14:51:52;25.97;71.61
64918;HTU21D;52176;44.858;38.372;2022-08-19T14:54:18;25.82;72.35
64918;HTU21D;52176;44.858;38.372;2022-08-19T14:56:43;25.67;71.96
64918;HTU21D;52176;44.858;38.372;2022-08-19T14:59:09;25.49;71.93
64918;HTU21D;52176;44.858;38.372;2022-08-19T15:01:35;25.33;72.18
64918;HTU21D;52176;44.858;38.372;2022-08-19T15:04:02;25.16;72.29
64918;HTU21D;52176;44.858;38.372;2022-08-19T15:06:27;25.03;72.61
64918;HTU21D;52176;44.858;38.372;2022-08-19T15:08:54;24.92;73.21
64918;HTU21D;52176;44.858;38.372;2022-08-19T15:11:22;24.86;73.75
64918;HTU21D;52176;44.858;38.372;2022-08-19T15:13:49;24.80;74.12
64918;HTU21D;52176;44.858;38.372;2022-08-19T15:16:16;24.79;74.36
64918;HTU21D;52176;44.858;38.372;2022-08-19T15:18:43;24.75;75.04
64918;HTU21D;52176;44.858;38.372;2022-08-19T15:21:14;24.72;75.32
64918;HTU21D;52176;44.858;38.372;2022-08-19T15:23:47;24.74;74.09